Time;durP1;ratioP1;P1;durP2;ratioP2;P2;SDS_P1;SDS_P2;PMS_P1;PMS_P2;Temp;Humidity;BMP_temperature;BMP_pressure;BME280_temperature;BME280_humidity;BME280_pressure;Samples;Min_cycle;Max_cycle;Signal;HPM_P1;HPM_P2
2023/04/21 00:01:16;;;;;;;15.83;7.70;;;;;;;9.73;55.41;100619.28;4212011;28;20236;-63
2023/04/21 00:03:43;;;;;;;16.93;7.97;;;;;;;9.75;55.44;100609.16;4222440;28;20970;-64
2023/04/21 00:06:10;;;;;;;17.37;7.90;;;;;;;9.64;55.68;100613.69;4234213;28;20253;-62
2023/04/21 00:08:39;;;;;;;16.83;7.30;;;;;;;9.67;55.64;100616.09;4221946;28;20231;-65
2023/04/21 00:11:07;;;;;;;18.07;7.33;;;;;;;9.56;56.03;100610.81;4225094;28;20235;-63
2023/04/21 00:13:37;;;;;;;17.07;7.67;;;;;;;9.50;56.29;100601.41;4219351;28;22234;-61
2023/04/21 00:16:04;;;;;;;18.23;7.13;;;;;;;9.44;56.39;100610.06;4241894;28;21089;-63
2023/04/21 00:18:31;;;;;;;18.37;8.27;;;;;;;9.48;56.38;100608.78;4229159;28;20239;-66
2023/04/21 00:20:57;;;;;;;14.63;7.83;;;;;;;9.45;56.51;100602.78;4228093;28;20996;-63
2023/04/21 00:23:24;;;;;;;19.00;8.43;;;;;;;9.36;56.80;100599.91;4227629;28;20235;-66
2023/04/21 00:25:51;;;;;;;15.00;8.00;;;;;;;9.25;57.15;100594.63;4225899;28;20248;-64
2023/04/21 00:28:17;;;;;;;15.80;7.60;;;;;;;9.28;56.90;100602.47;4226102;28;20230;-65
2023/04/21 00:30:44;;;;;;;14.07;7.20;;;;;;;9.34;56.52;100593.81;4227952;28;20243;-64
2023/04/21 00:33:10;;;;;;;14.10;7.53;;;;;;;9.31;56.74;100604.88;4226529;28;22727;-66
2023/04/21 00:35:37;;;;;;;15.77;7.40;;;;;;;9.27;56.94;100595.34;4214130;28;22961;-64
2023/04/21 00:38:03;;;;;;;15.00;7.30;;;;;;;9.19;57.13;100603.25;4233814;28;20225;-62
2023/04/21 00:40:30;;;;;;;17.73;7.50;;;;;;;9.23;56.99;100602.00;4228952;28;20238;-65
2023/04/21 00:42:57;;;;;;;16.27;7.30;;;;;;;9.20;57.20;100597.72;4218230;28;20413;-66
2023/04/21 00:45:24;;;;;;;16.73;7.30;;;;;;;9.22;57.06;100597.56;4224619;28;20621;-64
2023/04/21 00:47:51;;;;;;;16.53;7.67;;;;;;;9.17;57.30;100592.59;4229511;28;21578;-61
2023/04/21 00:50:17;;;;;;;14.23;7.70;;;;;;;9.10;57.48;100593.25;4226041;28;20305;-65
2023/04/21 00:52:45;;;;;;;16.37;7.20;;;;;;;9.14;57.31;100598.25;4226308;28;20258;-63
2023/04/21 00:55:13;;;;;;;14.97;6.80;;;;;;;9.09;57.59;100600.53;4222960;28;21104;-66
2023/04/21 00:57:39;;;;;;;18.43;7.87;;;;;;;9.12;57.49;100597.53;4228963;28;22371;-61
2023/04/21 01:00:07;;;;;;;22.13;7.57;;;;;;;8.98;57.74;100590.66;4225294;28;20339;-63
2023/04/21 01:02:36;;;;;;;14.70;7.50;;;;;;;8.97;57.88;100597.03;4225177;28;20228;-63
2023/04/21 01:05:07;;;;;;;12.53;7.07;;;;;;;8.98;57.87;100595.19;4225670;28;20311;-61
2023/04/21 01:07:35;;;;;;;15.37;7.80;;;;;;;8.96;57.87;100592.63;4231805;28;21565;-63
2023/04/21 01:10:02;;;;;;;17.40;7.33;;;;;;;9.00;57.66;100595.91;4226370;28;20270;-65
2023/04/21 01:12:29;;;;;;;17.23;8.17;;;;;;;8.97;57.73;100593.47;4226366;28;20234;-63
2023/04/21 01:14:55;;;;;;;20.93;7.70;;;;;;;8.84;58.15;100582.88;4222517;28;20323;-65
2023/04/21 01:17:22;;;;;;;16.63;7.53;;;;;;;8.84;58.49;100582.88;4229159;28;22458;-64
2023/04/21 01:19:49;;;;;;;12.20;7.00;;;;;;;8.79;58.36;100594.09;4217524;28;20294;-64
2023/04/21 01:22:17;;;;;;;21.70;7.57;;;;;;;8.82;58.37;100590.28;4234470;28;20290;-63
2023/04/21 01:24:46;;;;;;;14.87;7.47;;;;;;;8.75;58.74;100594.47;4224664;28;20232;-64
2023/04/21 01:27:17;;;;;;;16.43;7.17;;;;;;;8.69;58.79;100585.91;4223303;28;20247;-65
2023/04/21 01:29:46;;;;;;;13.17;7.00;;;;;;;8.65;58.87;100589.00;4214788;28;20285;-65
2023/04/21 01:32:16;;;;;;;13.60;6.63;;;;;;;8.60;59.06;100583.13;4225424;28;20597;-65
2023/04/21 01:34:43;;;;;;;15.53;7.30;;;;;;;8.65;58.87;100592.56;4223367;28;20318;-65
2023/04/21 01:37:14;;;;;;;14.47;6.80;;;;;;;8.68;58.72;100591.44;4226203;28;20386;-62
2023/04/21 01:39:46;;;;;;;10.43;6.27;;;;;;;8.57;59.13;100595.91;4225370;28;22597;-64
2023/04/21 01:42:13;;;;;;;16.30;6.97;;;;;;;8.55;59.03;100588.94;4224652;28;20389;-68
2023/04/21 01:44:40;;;;;;;16.97;6.80;;;;;;;8.50;59.13;100586.63;4230416;28;20238;-63
2023/04/21 01:47:07;;;;;;;17.27;6.60;;;;;;;8.45;59.30;100588.81;4228962;28;20223;-69
2023/04/21 01:49:34;;;;;;;17.47;6.43;;;;;;;8.34;59.54;100581.66;4229151;28;21278;-62
2023/04/21 01:52:00;;;;;;;16.73;6.27;;;;;;;8.36;59.52;100585.06;4214139;28;20299;-63
2023/04/21 01:54:27;;;;;;;16.27;7.00;;;;;;;8.37;59.48;100578.69;4225220;28;20429;-65
2023/04/21 01:56:53;;;;;;;14.50;6.40;;;;;;;8.32;59.57;100582.75;4227138;28;21661;-64
2023/04/21 01:59:21;;;;;;;12.40;7.17;;;;;;;8.36;59.61;100593.16;4224481;28;24505;-63
2023/04/21 02:01:47;;;;;;;11.27;6.67;;;;;;;8.37;59.26;100589.50;4223664;28;20369;-63
2023/04/21 02:04:14;;;;;;;12.57;6.80;;;;;;;8.30;59.78;100585.59;4223792;28;22965;-64
2023/04/21 02:06:41;;;;;;;14.47;6.53;;;;;;;8.33;59.62;100590.72;4226816;28;20282;-66
2023/04/21 02:09:07;;;;;;;14.17;6.90;;;;;;;8.23;59.67;100590.63;4229359;28;20352;-63
2023/04/21 02:11:34;;;;;;;12.53;6.70;;;;;;;8.29;59.71;100578.50;4220084;28;20569;-63
2023/04/21 02:14:00;;;;;;;12.97;6.90;;;;;;;8.17;60.03;100579.50;4228809;28;21987;-63
2023/04/21 02:16:27;;;;;;;10.43;6.23;;;;;;;8.18;60.03;100581.22;4220656;28;20322;-65
2023/04/21 02:18:55;;;;;;;14.00;7.17;;;;;;;8.13;60.24;100588.84;4226681;28;20691;-64
2023/04/21 02:21:23;;;;;;;13.80;7.03;;;;;;;8.17;60.11;100584.88;4224616;28;23132;-62
2023/04/21 02:23:50;;;;;;;16.03;6.30;;;;;;;8.07;60.69;100588.38;4220487;28;20235;-65
2023/04/21 02:26:17;;;;;;;15.60;6.77;;;;;;;8.05;60.43;100590.34;4226187;28;20599;-64
2023/04/21 02:28:44;;;;;;;10.70;6.30;;;;;;;8.02;60.34;100582.50;4220910;28;25205;-63
2023/04/21 02:31:11;;;;;;;20.67;6.33;;;;;;;7.93;60.67;100583.28;4229274;28;20299;-66
2023/04/21 02:33:37;;;;;;;12.07;6.73;;;;;;;8.01;60.35;100585.31;4215451;28;20360;-64
2023/04/21 02:36:04;;;;;;;13.33;6.83;;;;;;;7.92;60.72;100595.03;4229027;28;21252;-67
2023/04/21 02:38:31;;;;;;;12.57;6.67;;;;;;;7.96;60.54;100588.41;4225243;28;20301;-62
2023/04/21 02:40:57;;;;;;;13.10;7.00;;;;;;;7.88;60.69;100585.47;4227826;28;22952;-62
2023/04/21 02:43:24;;;;;;;15.90;6.47;;;;;;;7.77;61.24;100589.06;4231598;28;20371;-63
2023/04/21 02:45:50;;;;;;;13.60;5.93;;;;;;;7.72;61.26;100586.72;4224531;28;20239;-64
2023/04/21 02:48:21;;;;;;;10.30;6.03;;;;;;;7.73;61.53;100582.22;4231446;28;20847;-64
2023/04/21 02:50:49;;;;;;;13.73;6.63;;;;;;;7.78;61.13;100588.06;4223255;28;21208;-63
2023/04/21 02:53:16;;;;;;;13.17;6.80;;;;;;;7.74;61.45;100578.53;4223158;28;20240;-63
2023/04/21 02:55:42;;;;;;;16.20;7.20;;;;;;;7.68;61.48;100579.91;4224419;28;20239;-65
2023/04/21 02:58:10;;;;;;;13.43;6.70;;;;;;;7.72;61.10;100575.09;4214149;28;25772;-63
2023/04/21 03:00:36;;;;;;;14.60;6.23;;;;;;;7.66;61.36;100573.75;4223778;28;21107;-66
2023/04/21 03:03:03;;;;;;;13.67;6.30;;;;;;;7.61;61.50;100574.13;4224525;28;20603;-64
2023/04/21 03:05:30;;;;;;;13.33;7.03;;;;;;;7.64;61.07;100581.09;4234155;28;20529;-66
2023/04/21 03:07:56;;;;;;;13.70;6.57;;;;;;;7.65;61.39;100576.59;4221121;28;20421;-64
2023/04/21 03:10:23;;;;;;;13.80;6.83;;;;;;;7.63;61.39;100573.16;4230209;28;21192;-63
2023/04/21 03:12:49;;;;;;;13.37;6.70;;;;;;;7.64;61.49;100578.41;4227399;28;20976;-61
2023/04/21 03:15:18;;;;;;;15.17;6.50;;;;;;;7.65;61.31;100574.75;4226655;28;20232;-67
2023/04/21 03:17:45;;;;;;;15.03;7.00;;;;;;;7.67;61.11;100580.00;4220457;28;20409;-62
2023/04/21 03:20:11;;;;;;;12.53;6.00;;;;;;;7.60;61.18;100577.81;4227211;28;20224;-66
2023/04/21 03:22:38;;;;;;;14.60;6.37;;;;;;;7.59;61.38;100578.78;4221765;28;20281;-64
2023/04/21 03:25:06;;;;;;;14.57;6.10;;;;;;;7.53;61.67;100573.06;4221951;28;20304;-65
2023/04/21 03:27:33;;;;;;;13.67;6.27;;;;;;;7.58;61.41;100577.09;4225504;28;20674;-64
2023/04/21 03:30:00;;;;;;;13.90;6.70;;;;;;;7.55;61.35;100571.09;4225730;28;20402;-64
2023/04/21 03:32:26;;;;;;;10.10;5.97;;;;;;;7.38;61.93;100581.41;4223008;28;20224;-65
2023/04/21 03:34:53;;;;;;;12.73;5.60;;;;;;;7.39;61.65;100574.16;4230548;28;21104;-66
2023/04/21 03:37:20;;;;;;;13.57;6.73;;;;;;;7.34;61.96;100577.22;4227161;28;21752;-68
2023/04/21 03:39:47;;;;;;;13.83;6.07;;;;;;;7.36;61.75;100579.81;4228652;28;20227;-66
2023/04/21 03:42:14;;;;;;;15.13;6.70;;;;;;;7.29;61.98;100579.44;4268900;28;20235;-66
2023/04/21 03:44:40;;;;;;;21.90;6.83;;;;;;;7.34;61.83;100584.47;4260754;28;20239;-62
2023/04/21 03:47:07;;;;;;;11.47;6.00;;;;;;;7.42;61.38;100576.63;4235604;28;25431;-63
2023/04/21 03:49:34;;;;;;;10.07;6.13;;;;;;;7.34;61.71;100576.38;4249638;28;22908;-60
2023/04/21 03:52:01;;;;;;;12.13;6.00;;;;;;;7.36;61.65;100585.19;4242575;28;21775;-65
2023/04/21 03:54:28;;;;;;;12.17;5.67;;;;;;;7.36;61.51;100586.03;4257662;28;21156;-62
2023/04/21 03:56:54;;;;;;;11.53;5.93;;;;;;;7.44;61.27;100588.97;4241264;28;20243;-64
2023/04/21 03:59:21;;;;;;;12.60;5.97;;;;;;;7.39;61.13;100591.19;4240729;28;22638;-64
2023/04/21 04:01:47;;;;;;;16.13;5.63;;;;;;;7.38;61.26;100599.38;4226102;28;21157;-64
2023/04/21 04:04:14;;;;;;;11.47;5.70;;;;;;;7.40;60.75;100597.44;4233465;28;20227;-66
2023/04/21 04:06:41;;;;;;;10.80;5.60;;;;;;;7.51;60.40;100600.13;4237721;28;20310;-64
2023/04/21 04:09:08;;;;;;;15.87;6.13;;;;;;;7.48;60.66;100603.06;4218035;28;20597;-64
2023/04/21 04:11:35;;;;;;;8.33;5.23;;;;;;;7.52;60.29;100596.44;4249556;28;20369;-63
2023/04/21 04:14:02;;;;;;;13.87;5.87;;;;;;;7.46;60.22;100596.94;4226485;28;20391;-63
2023/04/21 04:16:29;;;;;;;10.27;5.47;;;;;;;7.44;60.30;100601.56;4206588;28;23704;-66
2023/04/21 04:18:56;;;;;;;13.90;5.23;;;;;;;7.42;60.33;100599.00;4208289;28;21051;-63
2023/04/21 04:21:23;;;;;;;13.77;5.57;;;;;;;7.50;60.31;100600.22;4224717;28;22826;-69
2023/04/21 04:23:52;;;;;;;13.07;4.80;;;;;;;7.51;60.15;100605.50;4216590;28;20356;-66
2023/04/21 04:26:23;;;;;;;14.33;5.40;;;;;;;7.54;59.70;100605.25;4226197;28;20366;-63
2023/04/21 04:28:51;;;;;;;10.77;5.40;;;;;;;7.57;59.75;100605.00;4212970;28;20733;-65
2023/04/21 04:31:18;;;;;;;10.47;4.67;;;;;;;7.65;59.31;100617.84;4219765;28;22496;-64
2023/04/21 04:33:45;;;;;;;12.80;5.30;;;;;;;7.70;59.13;100621.06;4218670;28;20271;-63
2023/04/21 04:36:11;;;;;;;13.60;5.10;;;;;;;7.74;58.52;100617.13;4223964;28;20235;-65
2023/04/21 04:38:39;;;;;;;8.93;4.70;;;;;;;7.78;58.46;100610.47;4220231;28;20247;-65
2023/04/21 04:41:07;;;;;;;7.90;4.40;;;;;;;7.84;58.31;100614.53;4213253;28;20413;-63
2023/04/21 04:43:35;;;;;;;8.80;4.90;;;;;;;7.91;58.38;100617.59;4222278;28;20317;-64
2023/04/21 04:46:02;;;;;;;15.97;5.17;;;;;;;7.93;58.01;100626.41;4228768;28;21755;-62
2023/04/21 04:48:29;;;;;;;8.77;4.87;;;;;;;8.00;57.81;100624.03;4215693;28;21080;-65
2023/04/21 04:50:55;;;;;;;11.10;5.00;;;;;;;8.05;57.38;100619.13;4221351;28;20279;-63
2023/04/21 04:53:22;;;;;;;11.83;5.27;;;;;;;7.99;57.75;100611.53;4209167;28;20544;-63
2023/04/21 04:55:49;;;;;;;9.67;5.23;;;;;;;8.04;57.50;100601.25;4222986;28;20231;-65
2023/04/21 04:58:15;;;;;;;12.47;4.80;;;;;;;8.11;57.31;100607.84;4226838;28;20262;-63
2023/04/21 05:00:42;;;;;;;12.27;5.00;;;;;;;8.12;56.96;100617.63;4235525;28;23523;-64
2023/04/21 05:03:08;;;;;;;13.53;5.23;;;;;;;8.19;56.74;100610.78;4229841;28;21125;-62
2023/04/21 05:05:35;;;;;;;11.23;5.30;;;;;;;8.25;56.35;100610.25;4224486;28;20231;-65
2023/04/21 05:08:02;;;;;;;20.27;4.93;;;;;;;8.31;56.08;100616.94;4233498;28;20232;-64
2023/04/21 05:10:29;;;;;;;12.00;4.87;;;;;;;8.52;55.78;100618.88;4197983;28;20231;-66
2023/04/21 05:12:55;;;;;;;13.07;5.40;;;;;;;8.57;55.43;100617.50;4225036;28;20795;-62
2023/04/21 05:15:22;;;;;;;10.93;5.07;;;;;;;8.61;55.17;100615.38;4219793;28;20991;-64
2023/04/21 05:17:48;;;;;;;14.07;5.20;;;;;;;8.76;54.77;100620.50;4222338;28;22559;-63
2023/04/21 05:20:15;;;;;;;15.97;4.77;;;;;;;8.81;54.45;100612.84;4220457;28;21173;-64
2023/04/21 05:22:42;;;;;;;12.57;4.93;;;;;;;8.88;54.54;100612.16;4222925;28;20234;-67
2023/04/21 05:25:13;;;;;;;9.57;4.40;;;;;;;9.04;53.75;100617.13;4225636;28;20281;-64
2023/04/21 05:27:44;;;;;;;13.70;4.57;;;;;;;9.02;53.79;100605.59;4226552;28;20286;-64
2023/04/21 05:30:11;;;;;;;11.20;5.07;;;;;;;9.11;53.40;100616.59;4230434;28;21680;-63
2023/04/21 05:32:37;;;;;;;9.30;5.10;;;;;;;9.27;53.29;100621.50;4226966;28;22489;-65
2023/04/21 05:35:05;;;;;;;15.17;4.80;;;;;;;9.41;52.49;100615.72;4196232;28;22938;-66
2023/04/21 05:37:31;;;;;;;11.03;4.77;;;;;;;9.56;52.25;100618.06;4221570;28;21350;-63
2023/04/21 05:39:58;;;;;;;14.20;5.30;;;;;;;9.63;52.19;100622.78;4225079;28;20318;-64
2023/04/21 05:42:24;;;;;;;10.90;4.87;;;;;;;9.81;50.83;100619.44;4231102;28;20271;-64
2023/04/21 05:44:51;;;;;;;14.13;4.97;;;;;;;9.96;50.22;100615.34;4224307;28;22198;-62
2023/04/21 05:47:20;;;;;;;10.13;4.80;;;;;;;9.98;50.29;100610.63;4231081;28;20262;-68
2023/04/21 05:49:51;;;;;;;12.63;5.07;;;;;;;10.13;49.90;100621.06;4219137;28;21194;-63
2023/04/21 05:52:19;;;;;;;12.83;4.80;;;;;;;10.19;49.26;100619.66;4208735;28;20705;-66
2023/04/21 05:54:46;;;;;;;12.40;4.50;;;;;;;10.23;49.51;100613.81;4211805;28;20239;-65
2023/04/21 05:57:12;;;;;;;11.37;4.73;;;;;;;10.45;48.76;100611.88;4224742;28;20235;-64
2023/04/21 05:59:39;;;;;;;9.63;4.70;;;;;;;10.67;48.33;100612.56;4232124;28;20232;-65
2023/04/21 06:02:06;;;;;;;10.50;4.90;;;;;;;10.64;48.54;100604.75;4225774;28;20307;-65
2023/04/21 06:04:33;;;;;;;12.70;4.33;;;;;;;10.76;48.54;100609.84;4224500;28;20365;-65
2023/04/21 06:07:12;;;;;;;12.60;4.83;;;;;;;11.01;47.65;100602.09;4226061;28;20304;-65
2023/04/21 06:09:40;;;;;;;13.47;4.50;;;;;;;11.31;47.36;100610.16;4225131;28;20235;-65
2023/04/21 06:12:06;;;;;;;13.90;5.00;;;;;;;11.44;46.35;100605.25;4206164;28;20286;-63
2023/04/21 06:14:33;;;;;;;11.00;4.27;;;;;;;11.48;45.81;100609.38;4229527;28;20310;-64
2023/04/21 06:16:59;;;;;;;13.70;4.60;;;;;;;11.67;45.83;100600.28;4213494;28;21823;-65
2023/04/21 06:19:26;;;;;;;14.53;4.40;;;;;;;11.87;45.35;100608.34;4226195;28;20586;-63
2023/04/21 06:21:52;;;;;;;10.23;4.50;;;;;;;12.09;44.49;100608.94;4217097;28;22622;-66
2023/04/21 06:24:23;;;;;;;8.10;4.07;;;;;;;12.28;43.49;100605.22;4229481;28;20294;-67
2023/04/21 06:26:51;;;;;;;9.03;4.30;;;;;;;12.39;43.39;100602.28;4232462;28;20302;-65
2023/04/21 06:29:19;;;;;;;10.33;4.30;;;;;;;12.55;42.37;100604.31;4217933;28;20296;-66
2023/04/21 06:31:46;;;;;;;9.77;4.30;;;;;;;12.67;41.95;100599.47;4215022;28;20437;-63
2023/04/21 06:34:13;;;;;;;9.97;4.33;;;;;;;12.87;42.24;100607.44;4230957;28;20551;-65
2023/04/21 06:36:39;;;;;;;11.33;4.27;;;;;;;14.28;38.69;100596.19;4230237;28;22260;-64
2023/04/21 06:39:06;;;;;;;9.70;3.73;;;;;;;15.57;36.05;100599.16;4232281;28;20758;-63
2023/04/21 06:41:33;;;;;;;12.80;4.50;;;;;;;16.76;34.46;100590.75;4258980;28;20230;-62
2023/04/21 06:43:59;;;;;;;14.30;4.57;;;;;;;17.65;33.40;100602.84;4223582;28;21929;-63
2023/04/21 06:46:26;;;;;;;9.70;3.53;;;;;;;18.95;30.92;100604.94;4248079;28;20417;-64
2023/04/21 06:48:53;;;;;;;9.57;3.80;;;;;;;19.02;30.14;100597.59;4231835;28;21827;-63
2023/04/21 06:51:19;;;;;;;8.17;3.83;;;;;;;19.20;29.56;100597.09;4226156;28;20606;-63
2023/04/21 06:53:46;;;;;;;15.70;4.43;;;;;;;20.06;28.97;100603.25;4209055;28;21816;-66
2023/04/21 06:56:12;;;;;;;10.90;4.73;;;;;;;20.85;27.29;100604.50;4225949;28;20302;-64
2023/04/21 06:58:39;;;;;;;11.70;3.80;;;;;;;20.56;27.24;100597.44;4224217;28;20230;-65
2023/04/21 07:01:05;;;;;;;9.93;4.17;;;;;;;20.99;27.21;100594.34;4219243;28;20258;-65
2023/04/21 07:03:32;;;;;;;9.17;4.20;;;;;;;23.04;24.93;100596.59;4236775;28;20265;-63
2023/04/21 07:05:59;;;;;;;7.03;3.80;;;;;;;23.40;23.80;100594.16;4226732;28;20740;-64
2023/04/21 07:08:26;;;;;;;10.27;4.17;;;;;;;23.84;23.33;100592.16;4201558;28;20288;-66
2023/04/21 07:10:52;;;;;;;12.40;3.90;;;;;;;22.63;24.82;100579.53;4225173;28;20235;-65
2023/04/21 07:13:19;;;;;;;9.57;4.37;;;;;;;23.85;24.14;100595.75;4224214;28;20225;-65
2023/04/21 07:15:46;;;;;;;9.63;3.93;;;;;;;25.61;21.73;100593.63;4239886;28;20235;-68
2023/04/21 07:18:12;;;;;;;10.07;3.77;;;;;;;26.39;21.10;100589.66;4226588;28;20603;-65
2023/04/21 07:20:39;;;;;;;11.60;4.30;;;;;;;25.69;21.24;100588.78;4231662;28;20236;-63
2023/04/21 07:23:06;;;;;;;13.93;4.00;;;;;;;24.99;21.91;100594.13;4238655;28;21232;-64
2023/04/21 07:25:32;;;;;;;9.00;3.70;;;;;;;23.06;23.07;100596.34;4231532;28;20266;-65
2023/04/21 07:27:59;;;;;;;9.43;3.70;;;;;;;22.73;23.82;100592.81;4244453;28;20281;-65
2023/04/21 07:30:26;;;;;;;13.40;4.13;;;;;;;23.20;23.38;100583.31;4202393;28;22045;-64
2023/04/21 07:32:52;;;;;;;10.70;3.80;;;;;;;22.60;23.94;100599.28;4256828;28;20243;-65
2023/04/21 07:35:19;;;;;;;10.00;3.60;;;;;;;22.38;23.36;100595.16;4232915;28;25085;-64
2023/04/21 07:37:45;;;;;;;11.67;3.70;;;;;;;22.28;24.10;100601.16;4216666;28;20281;-66
2023/04/21 07:40:13;;;;;;;8.37;3.37;;;;;;;22.37;23.82;100593.44;4250433;28;20234;-64
2023/04/21 07:42:40;;;;;;;14.27;3.60;;;;;;;22.63;23.83;100592.44;4237673;28;20286;-66
2023/04/21 07:45:07;;;;;;;6.53;3.53;;;;;;;23.65;22.70;100591.31;4220460;28;20235;-63
2023/04/21 07:47:34;;;;;;;12.47;3.80;;;;;;;23.50;23.14;100588.91;4228889;28;20380;-63
2023/04/21 07:50:00;;;;;;;11.93;3.75;;;;;;;24.45;22.41;100585.78;4233829;28;20306;-69
2023/04/21 07:52:27;;;;;;;7.90;3.23;;;;;;;24.07;21.59;100581.44;4225998;28;20239;-65
2023/04/21 07:54:54;;;;;;;7.03;3.27;;;;;;;23.39;22.20;100590.53;4226528;28;20233;-65
2023/04/21 07:57:21;;;;;;;17.23;3.83;;;;;;;22.78;23.87;100579.19;4231290;28;20281;-62
2023/04/21 07:59:48;;;;;;;10.97;3.50;;;;;;;22.06;24.26;100584.09;4240680;28;20372;-64
2023/04/21 08:02:15;;;;;;;9.00;3.40;;;;;;;21.35;25.69;100575.63;4224061;28;25759;-64
2023/04/21 08:04:42;;;;;;;9.80;3.60;;;;;;;21.18;25.61;100572.50;4246260;28;20830;-64
2023/04/21 08:07:14;;;;;;;15.03;3.60;;;;;;;20.42;27.30;100574.63;4230015;28;20243;-62
2023/04/21 08:09:41;;;;;;;19.83;3.43;;;;;;;19.75;27.16;100566.16;4220902;28;20588;-64
2023/04/21 08:12:08;;;;;;;14.27;3.93;;;;;;;19.93;26.76;100569.19;4218326;28;20312;-65
2023/04/21 08:14:35;;;;;;;9.30;3.23;;;;;;;20.42;26.97;100571.88;4234133;28;20298;-65
2023/04/21 08:17:02;;;;;;;9.23;3.23;;;;;;;19.37;27.13;100570.19;4233731;28;20601;-62
2023/04/21 08:19:29;;;;;;;6.83;3.20;;;;;;;19.36;27.21;100564.91;4240524;28;20526;-62
2023/04/21 08:21:56;;;;;;;7.30;3.00;;;;;;;19.59;26.97;100564.59;4241414;28;21372;-62
2023/04/21 08:24:24;;;;;;;4.90;2.70;;;;;;;19.48;26.18;100572.38;4233389;28;20573;-62
2023/04/21 08:26:54;;;;;;;9.20;2.97;;;;;;;18.85;26.06;100561.34;4238707;28;20238;-69
2023/04/21 08:29:20;;;;;;;8.50;2.77;;;;;;;18.46;27.17;100570.94;4227205;28;20236;-65
2023/04/21 08:31:47;;;;;;;6.47;3.07;;;;;;;18.93;27.64;100563.97;4238792;28;20257;-66
2023/04/21 08:34:14;;;;;;;8.77;2.93;;;;;;;18.67;28.39;100562.69;4294680;28;20428;-67
2023/04/21 08:36:41;;;;;;;9.77;3.10;;;;;;;18.89;27.90;100553.56;4271452;28;20366;-68
2023/04/21 08:39:08;;;;;;;6.87;3.17;;;;;;;18.82;26.82;100564.50;4339431;28;21103;-70
2023/04/21 08:41:39;;;;;;;7.57;2.70;;;;;;;18.71;26.78;100559.53;4306465;28;20376;-67
2023/04/21 08:44:06;;;;;;;5.77;2.50;;;;;;;18.93;26.18;100560.41;4266114;28;21584;-64
2023/04/21 08:46:32;;;;;;;6.23;2.50;;;;;;;18.14;26.03;100560.28;4283895;28;21037;-66
2023/04/21 08:49:02;;;;;;;10.00;2.63;;;;;;;17.70;27.26;100564.81;4303666;28;20805;-68
2023/04/21 08:51:30;;;;;;;10.80;3.10;;;;;;;17.70;27.58;100567.56;4276414;28;20554;-71
2023/04/21 08:53:57;;;;;;;6.17;2.50;;;;;;;17.66;28.07;100560.75;4241562;28;21803;-65
2023/04/21 08:56:25;;;;;;;6.80;2.70;;;;;;;17.41;28.19;100557.47;4249179;28;21789;-71
2023/04/21 08:58:52;;;;;;;7.07;2.90;;;;;;;17.97;27.99;100550.63;4264761;28;20236;-67
2023/04/21 09:01:19;;;;;;;7.47;2.80;;;;;;;17.98;27.55;100549.56;4233107;28;20232;-64
2023/04/21 09:03:46;;;;;;;6.63;2.47;;;;;;;17.92;27.00;100551.16;4229961;28;22891;-64
2023/04/21 09:06:13;;;;;;;7.97;2.37;;;;;;;17.79;27.01;100553.75;4232946;28;20269;-67
2023/04/21 09:08:52;;;;;;;6.20;2.60;;;;;;;17.42;27.14;100548.22;4239148;28;20250;-67
2023/04/21 09:11:19;;;;;;;4.63;2.20;;;;;;;17.21;28.04;100552.59;4220224;28;21689;-67
2023/04/21 09:13:45;;;;;;;7.80;2.30;;;;;;;17.19;28.21;100549.19;4235677;28;20384;-64
2023/04/21 09:16:22;;;;;;;6.07;2.50;;;;;;;17.31;27.28;100546.81;4241095;28;22138;-65
2023/04/21 09:18:50;;;;;;;5.63;2.67;;;;;;;17.55;27.17;100550.31;4233242;28;21252;-67
2023/04/21 09:21:18;;;;;;;8.40;2.53;;;;;;;17.66;27.29;100551.69;4233370;28;25521;-66
2023/04/21 09:23:50;;;;;;;8.83;2.70;;;;;;;17.92;27.67;100537.47;4216079;28;20443;-64
2023/04/21 09:26:20;;;;;;;4.97;2.50;;;;;;;17.49;27.21;100535.47;4213752;28;23751;-65
2023/04/21 09:28:47;;;;;;;6.77;2.60;;;;;;;17.19;27.44;100537.38;4220996;28;20294;-67
2023/04/21 09:31:19;;;;;;;6.60;2.70;;;;;;;17.10;27.50;100544.84;4214669;28;20410;-65
2023/04/21 09:33:48;;;;;;;6.10;2.50;;;;;;;17.11;26.86;100532.84;4216671;28;20385;-62
2023/04/21 09:36:26;;;;;;;4.17;2.30;;;;;;;17.54;27.74;100541.22;4223534;28;21040;-68
2023/04/21 09:38:53;;;;;;;6.87;2.67;;;;;;;17.62;28.10;100540.28;4233462;28;20228;-69
2023/04/21 09:41:40;;;;;;;5.53;2.73;;;;;;;17.93;28.12;100525.50;4224730;28;22743;-67
2023/04/21 09:44:06;;;;;;;4.80;2.30;;;;;;;18.12;27.35;100524.03;4237618;28;21218;-69
2023/04/21 09:46:35;;;;;;;6.80;2.50;;;;;;;17.99;27.27;100530.22;4236064;28;20247;-67
2023/04/21 09:49:02;;;;;;;4.33;2.63;;;;;;;17.70;26.38;100534.72;4222454;28;20339;-66
2023/04/21 09:51:32;;;;;;;5.57;2.57;;;;;;;17.63;26.63;100524.69;4221632;28;20829;-65
2023/04/21 09:54:10;;;;;;;11.20;2.63;;;;;;;17.54;27.86;100521.22;4228408;28;20236;-66
2023/04/21 09:56:56;;;;;;;8.33;2.40;;;;;;;17.56;27.08;100516.44;4242196;28;21868;-67
2023/04/21 09:59:29;;;;;;;3.67;2.10;;;;;;;17.73;27.55;100515.13;4227185;28;20306;-66
2023/04/21 10:01:56;;;;;;;6.17;2.40;;;;;;;17.62;26.98;100525.72;4232168;28;24388;-66
2023/04/21 10:04:24;;;;;;;4.90;2.53;;;;;;;17.54;27.74;100516.59;4241171;28;20228;-66
2023/04/21 10:06:52;;;;;;;6.00;2.60;;;;;;;17.30;27.24;100520.50;4234657;28;21524;-66
2023/04/21 10:09:21;;;;;;;4.87;2.43;;;;;;;17.15;27.24;100516.91;4235013;28;20949;-63
2023/04/21 10:11:48;;;;;;;6.53;2.30;;;;;;;17.43;28.35;100508.88;4205953;28;20239;-65
2023/04/21 10:14:15;;;;;;;10.73;2.87;;;;;;;17.35;26.50;100504.34;4229303;28;22365;-68
2023/04/21 10:16:42;;;;;;;7.13;2.30;;;;;;;17.39;27.73;100499.34;4232962;28;20252;-68
2023/04/21 10:19:25;;;;;;;4.83;2.43;;;;;;;17.98;27.66;100492.03;4214772;28;20320;-66
2023/04/21 10:21:59;;;;;;;3.10;1.90;;;;;;;18.26;26.18;100491.28;4236159;28;20764;-64
2023/04/21 10:24:29;;;;;;;3.60;2.20;;;;;;;18.03;25.78;100492.31;4259253;28;22805;-66
2023/04/21 10:27:00;;;;;;;6.77;2.50;;;;;;;17.93;25.50;100481.66;4232743;28;22030;-66
2023/04/21 10:29:29;;;;;;;6.93;2.50;;;;;;;17.50;26.01;100496.13;4249203;28;25529;-65
2023/04/21 10:32:10;;;;;;;5.37;2.30;;;;;;;17.73;25.95;100479.53;4221463;28;21688;-65
2023/04/21 10:34:37;;;;;;;5.50;2.30;;;;;;;17.67;26.27;100482.22;4236685;28;20289;-68
2023/04/21 10:37:04;;;;;;;3.50;2.00;;;;;;;17.39;25.96;100491.13;4225987;28;20240;-64
2023/04/21 10:39:35;;;;;;;4.43;2.20;;;;;;;17.26;26.75;100486.34;4230444;28;20583;-68
2023/04/21 10:42:11;;;;;;;6.30;2.37;;;;;;;17.51;25.40;100481.41;4226107;28;20628;-65
2023/04/21 10:44:49;;;;;;;4.17;2.27;;;;;;;17.69;25.20;100477.38;4236021;28;22667;-63
2023/04/21 10:47:36;;;;;;;5.83;2.47;;;;;;;17.65;25.33;100470.63;4232057;28;20321;-64
2023/04/21 10:50:13;;;;;;;4.73;2.37;;;;;;;18.08;25.52;100473.41;4230052;28;20234;-63
2023/04/21 10:52:43;;;;;;;4.47;1.90;;;;;;;18.16;25.24;100464.22;4242371;28;20234;-64
2023/04/21 10:55:11;;;;;;;5.70;2.13;;;;;;;17.70;25.66;100465.41;4228620;28;20231;-60
2023/04/21 10:57:41;;;;;;;5.93;2.40;;;;;;;17.64;25.66;100463.44;4213175;28;21423;-62
2023/04/21 11:00:14;;;;;;;5.50;2.40;;;;;;;17.51;26.10;100456.78;4226178;28;20321;-68
2023/04/21 11:02:41;;;;;;;4.47;2.30;;;;;;;17.49;25.91;100453.38;4230031;28;20314;-66
2023/04/21 11:05:10;;;;;;;4.80;2.40;;;;;;;17.87;27.10;100453.16;4221285;28;20312;-65
2023/04/21 11:07:37;;;;;;;7.03;2.70;;;;;;;17.71;25.80;100450.66;4241019;28;20266;-66
2023/04/21 11:10:08;;;;;;;6.23;1.90;;;;;;;17.62;26.09;100447.22;4215109;28;20223;-68
2023/04/21 11:12:37;;;;;;;9.30;2.20;;;;;;;17.94;26.95;100441.41;4219759;28;21652;-66
2023/04/21 11:15:10;;;;;;;5.63;2.30;;;;;;;18.29;25.18;100436.91;4236156;28;20364;-67
2023/04/21 11:17:38;;;;;;;5.80;2.87;;;;;;;18.18;25.62;100432.84;4202870;28;20237;-67
2023/04/21 11:20:06;;;;;;;4.43;2.20;;;;;;;18.20;23.94;100429.88;4216179;28;20630;-66
2023/04/21 11:22:33;;;;;;;8.53;2.57;;;;;;;18.15;24.97;100435.13;4222765;28;21775;-68
2023/04/21 11:24:59;;;;;;;3.57;2.20;;;;;;;18.02;24.79;100425.72;4225703;28;20348;-69
2023/04/21 11:27:28;;;;;;;6.33;2.23;;;;;;;17.97;25.01;100424.63;4235238;28;20235;-68